Saint-Charles-Sur-Richelieu, Canada
Current Conditions -  °F | °C
As of 9:00 AM on Monday 26 Jan 2015 (Local Time) from CYHU Reporting Station
Clear Clear  
Wind Chill: -28°   Ceiling: Unl
Heat Index: -20°   Visibility: 9mi
Dew Point: -23°   Wind: 7mph
Humidity: 78%   Direction: 20°NNE
Pressure: 30.25"   Gusts: NA
Location:  45.68°N, 73.18°W
Report Text: CYHU 261400Z AUTO 02006KT 9SM CLR M20/M23 A3025 RMK SLP246
Loading
Personal Weather Stations






























Interactive Weather Map New forecast layout! Learn more

10-Day Weather Forecast

Advertisements
Track Severe Weather on mobile